Aeroporto :
LOGIN :

Iscrizione | Disclaimer

   EN    FR    IT 

 










Sommario :    VFR   VFR Marginale   IFR   IFR Intensivo   IFR Molto Intensivo
Visibilità : 
Base nubi : 
>= 8 km
>= 3000ft
5 / 8 km
1000 / 3000 ft
1500m / 5 km
500 / 1000 ft
800 / 1500m
200 / 500 ft
< 800m
< 200 ft
Simboli :   Temporali  Nebbia  Neve Forte  Precipitazioni Forti  Vento > 20 kt
SIGMETs :   Varie  Temporali  Ghiacco  Turbolenza  Onda orograficha  Ceneri Vulcaniche







- Altitudine del aeroporto : 598 ft
- Codice IATA : BQH
- Carte del aeroporto


EGKB - Biggin Hill

ULTIMO METAR :
  • 151920Z 09005KT 060V120 CAVOK 16/12 Q1022

METARs OBSOLETI :
  • 151850Z 10006KT 030V140 9999 FEW035 17/12 Q1021
  • 151820Z 04006KT 340V070 9999 FEW040 19/11 Q1021
  • 151750Z 01006KT 330V090 9999 FEW040 19/11 Q1021
  • 151720Z 02006KT 340V050 9999 SCT040 19/10 Q1021
  • 151650Z 02004KT 300V100 9999 SCT040 19/10 Q1022

TAF TAF EGKB
Valido dal 15 a 18 ore il 15 a 23 ore UTC


151712Z 1518/1523 03008KT 9999 FEW035
Nessun NOTAM noto per questo aeroporto.



MetMap, La meteo Aeronautica in un colpo d'occhio ! - Copyright ORBIFLY Dicembre 2007 - Disclaimer

ORBIFLY MET'MAP TEAM :

Programmazione e sviluppo : Alexandra Zaïnal
Concezione e sviluppo : Baudouin d'Aumeries
Co-Programmazione e sviluppo : Marc-Olivier Méhu
Supporto tecnico e logistico : Manuel Goepfert
Aiuto per la traduzione : Arnaldo La Scala

Contatto : metmap@orbifly.com




FONTI E CREDITI :

   NOAA